sensor_id;sensor_type;location;lat;lon;timestamp;pressure;altitude;pressure_sealevel;temperature;humidity
6514;BME280;3290;47.716;9.070;2023-01-28T00:01:48;97335.03;;;2.19;91.97
6514;BME280;3290;47.716;9.070;2023-01-28T00:04:13;97338.25;;;2.21;91.95
6514;BME280;3290;47.716;9.070;2023-01-28T00:06:39;97326.25;;;2.12;92.65
6514;BME280;3290;47.716;9.070;2023-01-28T00:09:05;97318.72;;;2.19;92.10
6514;BME280;3290;47.716;9.070;2023-01-28T00:11:30;97321.53;;;2.33;91.47
6514;BME280;3290;47.716;9.070;2023-01-28T00:13:55;97322.75;;;2.21;92.09
6514;BME280;3290;47.716;9.070;2023-01-28T00:16:21;97319.81;;;2.16;92.03
6514;BME280;3290;47.716;9.070;2023-01-28T00:18:47;97325.91;;;2.07;91.91
6514;BME280;3290;47.716;9.070;2023-01-28T00:21:13;97321.03;;;2.04;92.64
6514;BME280;3290;47.716;9.070;2023-01-28T00:23:40;97307.91;;;2.23;91.53
6514;BME280;3290;47.716;9.070;2023-01-28T00:26:12;97310.84;;;2.36;90.95
6514;BME280;3290;47.716;9.070;2023-01-28T00:28:38;97308.53;;;2.17;91.45
6514;BME280;3290;47.716;9.070;2023-01-28T00:31:24;97307.63;;;2.34;91.53
6514;BME280;3290;47.716;9.070;2023-01-28T00:33:50;97310.69;;;2.30;90.91
6514;BME280;3290;47.716;9.070;2023-01-28T00:36:17;97311.66;;;2.29;91.40
6514;BME280;3290;47.716;9.070;2023-01-28T00:38:47;97308.88;;;2.22;91.51
6514;BME280;3290;47.716;9.070;2023-01-28T00:41:15;97315.56;;;2.07;91.58
6514;BME280;3290;47.716;9.070;2023-01-28T00:43:41;97317.47;;;2.31;91.52
6514;BME280;3290;47.716;9.070;2023-01-28T00:46:10;97322.25;;;2.18;91.84
6514;BME280;3290;47.716;9.070;2023-01-28T00:48:37;97323.97;;;2.09;92.71
6514;BME280;3290;47.716;9.070;2023-01-28T00:51:03;97328.34;;;2.09;92.58
6514;BME280;3290;47.716;9.070;2023-01-28T00:53:28;97326.28;;;2.20;92.27
6514;BME280;3290;47.716;9.070;2023-01-28T00:55:54;97330.88;;;2.26;92.20
6514;BME280;3290;47.716;9.070;2023-01-28T00:58:20;97328.53;;;2.15;91.63
6514;BME280;3290;47.716;9.070;2023-01-28T01:00:45;97325.34;;;2.21;91.18
6514;BME280;3290;47.716;9.070;2023-01-28T01:03:11;97323.09;;;2.26;90.66
6514;BME280;3290;47.716;9.070;2023-01-28T01:05:36;97319.97;;;2.48;89.85
6514;BME280;3290;47.716;9.070;2023-01-28T01:08:02;97320.38;;;2.69;89.13
6514;BME280;3290;47.716;9.070;2023-01-28T01:10:27;97323.53;;;2.47;89.61
6514;BME280;3290;47.716;9.070;2023-01-28T01:12:52;97338.47;;;2.28;91.65
6514;BME280;3290;47.716;9.070;2023-01-28T01:15:18;97334.75;;;2.30;90.91
6514;BME280;3290;47.716;9.070;2023-01-28T01:17:46;97329.47;;;2.39;91.21
6514;BME280;3290;47.716;9.070;2023-01-28T01:20:18;97339.25;;;2.28;91.46
6514;BME280;3290;47.716;9.070;2023-01-28T01:22:44;97318.78;;;2.35;92.25
6514;BME280;3290;47.716;9.070;2023-01-28T01:25:11;97326.28;;;2.45;91.66
6514;BME280;3290;47.716;9.070;2023-01-28T01:27:37;97324.72;;;2.27;93.79
6514;BME280;3290;47.716;9.070;2023-01-28T01:30:02;97317.47;;;2.31;94.11
6514;BME280;3290;47.716;9.070;2023-01-28T01:32:29;97322.34;;;2.34;94.57
6514;BME280;3290;47.716;9.070;2023-01-28T01:34:55;97325.88;;;2.33;96.00
6514;BME280;3290;47.716;9.070;2023-01-28T01:37:20;97335.88;;;2.02;96.55
6514;BME280;3290;47.716;9.070;2023-01-28T01:39:46;97329.78;;;2.11;97.87
6514;BME280;3290;47.716;9.070;2023-01-28T01:42:12;97326.03;;;2.06;98.97
6514;BME280;3290;47.716;9.070;2023-01-28T01:45:06;97332.72;;;2.16;98.46
6514;BME280;3290;47.716;9.070;2023-01-28T01:47:41;97331.22;;;2.06;98.72
6514;BME280;3290;47.716;9.070;2023-01-28T01:52:44;97336.38;;;1.81;100.00
6514;BME280;3290;47.716;9.070;2023-01-28T01:55:15;97338.28;;;1.96;99.69
6514;BME280;3290;47.716;9.070;2023-01-28T01:57:41;97341.66;;;1.97;99.15
6514;BME280;3290;47.716;9.070;2023-01-28T02:00:08;97342.69;;;2.03;98.16
6514;BME280;3290;47.716;9.070;2023-01-28T02:02:37;97337.50;;;2.03;98.32
6514;BME280;3290;47.716;9.070;2023-01-28T02:05:06;97340.28;;;2.10;97.53
6514;BME280;3290;47.716;9.070;2023-01-28T02:07:32;97336.88;;;2.09;97.83
6514;BME280;3290;47.716;9.070;2023-01-28T02:09:58;97341.69;;;2.04;97.42
6514;BME280;3290;47.716;9.070;2023-01-28T02:12:29;97336.84;;;2.01;97.28
6514;BME280;3290;47.716;9.070;2023-01-28T02:15:00;97346.56;;;2.07;97.13
6514;BME280;3290;47.716;9.070;2023-01-28T02:17:26;97351.75;;;2.07;96.06
6514;BME280;3290;47.716;9.070;2023-01-28T02:19:56;97347.31;;;2.25;95.52
6514;BME280;3290;47.716;9.070;2023-01-28T02:30:46;97346.78;;;2.14;95.05
6514;BME280;3290;47.716;9.070;2023-01-28T02:33:38;97346.88;;;2.30;94.35
6514;BME280;3290;47.716;9.070;2023-01-28T02:36:31;97350.53;;;2.19;94.76
6514;BME280;3290;47.716;9.070;2023-01-28T02:41:39;97351.91;;;2.31;94.48
6514;BME280;3290;47.716;9.070;2023-01-28T02:44:07;97351.56;;;2.34;93.37
6514;BME280;3290;47.716;9.070;2023-01-28T02:46:35;97352.56;;;2.41;93.68
6514;BME280;3290;47.716;9.070;2023-01-28T02:54:38;97351.06;;;2.31;93.59
6514;BME280;3290;47.716;9.070;2023-01-28T03:00:08;97347.97;;;2.60;92.63
6514;BME280;3290;47.716;9.070;2023-01-28T03:02:51;97340.00;;;2.46;92.24
6514;BME280;3290;47.716;9.070;2023-01-28T03:08:06;97344.59;;;2.60;92.10
6514;BME280;3290;47.716;9.070;2023-01-28T03:10:55;97348.97;;;2.67;91.04
6514;BME280;3290;47.716;9.070;2023-01-28T03:13:40;97347.13;;;2.52;92.58
6514;BME280;3290;47.716;9.070;2023-01-28T03:16:26;97343.84;;;2.75;91.68
6514;BME280;3290;47.716;9.070;2023-01-28T03:19:12;97339.84;;;2.47;92.75
6514;BME280;3290;47.716;9.070;2023-01-28T03:21:57;97341.97;;;2.52;92.89
6514;BME280;3290;47.716;9.070;2023-01-28T03:24:48;97341.44;;;2.48;92.99
6514;BME280;3290;47.716;9.070;2023-01-28T03:28:02;97344.53;;;2.52;93.41
6514;BME280;3290;47.716;9.070;2023-01-28T03:31:09;97345.25;;;2.29;93.47
6514;BME280;3290;47.716;9.070;2023-01-28T03:33:56;97352.53;;;2.33;93.48
6514;BME280;3290;47.716;9.070;2023-01-28T03:36:41;97354.06;;;2.43;92.97
6514;BME280;3290;47.716;9.070;2023-01-28T03:39:21;97352.72;;;2.73;91.38
6514;BME280;3290;47.716;9.070;2023-01-28T03:42:09;97350.97;;;2.81;91.30
6514;BME280;3290;47.716;9.070;2023-01-28T03:44:36;97354.44;;;2.56;91.29
6514;BME280;3290;47.716;9.070;2023-01-28T03:47:23;97354.44;;;2.64;90.94
6514;BME280;3290;47.716;9.070;2023-01-28T03:49:51;97358.28;;;2.93;90.49
6514;BME280;3290;47.716;9.070;2023-01-28T03:52:21;97353.81;;;2.62;90.47
6514;BME280;3290;47.716;9.070;2023-01-28T03:54:47;97354.66;;;2.71;90.12
6514;BME280;3290;47.716;9.070;2023-01-28T03:57:14;97357.00;;;2.89;89.73
6514;BME280;3290;47.716;9.070;2023-01-28T03:59:40;97361.31;;;2.40;90.77
6514;BME280;3290;47.716;9.070;2023-01-28T04:02:06;97364.50;;;2.34;91.21
6514;BME280;3290;47.716;9.070;2023-01-28T04:04:32;97371.22;;;2.27;91.64
6514;BME280;3290;47.716;9.070;2023-01-28T04:06:58;97364.09;;;2.21;92.34
6514;BME280;3290;47.716;9.070;2023-01-28T04:09:23;97356.53;;;2.53;91.05
6514;BME280;3290;47.716;9.070;2023-01-28T04:11:49;97355.75;;;2.60;90.15
6514;BME280;3290;47.716;9.070;2023-01-28T04:14:16;97350.41;;;2.62;90.01
6514;BME280;3290;47.716;9.070;2023-01-28T04:16:42;97353.34;;;2.67;90.75
6514;BME280;3290;47.716;9.070;2023-01-28T04:19:08;97355.75;;;2.60;90.39
6514;BME280;3290;47.716;9.070;2023-01-28T04:21:34;97364.56;;;2.50;90.43
6514;BME280;3290;47.716;9.070;2023-01-28T04:24:00;97353.63;;;2.56;90.87
6514;BME280;3290;47.716;9.070;2023-01-28T04:26:26;97360.09;;;2.60;90.07
6514;BME280;3290;47.716;9.070;2023-01-28T04:28:52;97361.75;;;2.61;90.70
6514;BME280;3290;47.716;9.070;2023-01-28T04:31:17;97369.34;;;2.37;91.57
6514;BME280;3290;47.716;9.070;2023-01-28T04:33:42;97364.03;;;2.72;90.66
6514;BME280;3290;47.716;9.070;2023-01-28T04:36:08;97370.09;;;2.55;90.64
6514;BME280;3290;47.716;9.070;2023-01-28T04:38:33;97371.78;;;2.13;92.64
6514;BME280;3290;47.716;9.070;2023-01-28T04:40:59;97362.84;;;2.58;91.01
6514;BME280;3290;47.716;9.070;2023-01-28T04:43:24;97373.53;;;2.05;92.85
6514;BME280;3290;47.716;9.070;2023-01-28T04:45:49;97380.16;;;2.33;91.87
6514;BME280;3290;47.716;9.070;2023-01-28T04:48:15;97372.31;;;2.42;91.91
6514;BME280;3290;47.716;9.070;2023-01-28T04:50:42;97369.16;;;2.05;93.26
6514;BME280;3290;47.716;9.070;2023-01-28T04:53:08;97358.81;;;2.56;91.80
6514;BME280;3290;47.716;9.070;2023-01-28T04:55:34;97372.56;;;2.31;92.48
6514;BME280;3290;47.716;9.070;2023-01-28T04:57:59;97373.16;;;2.50;92.45
6514;BME280;3290;47.716;9.070;2023-01-28T05:00:25;97369.59;;;2.51;91.72
6514;BME280;3290;47.716;9.070;2023-01-28T05:02:50;97368.56;;;2.37;92.89
6514;BME280;3290;47.716;9.070;2023-01-28T05:05:15;97376.66;;;2.16;93.23
6514;BME280;3290;47.716;9.070;2023-01-28T05:07:41;97381.56;;;2.27;93.42
6514;BME280;3290;47.716;9.070;2023-01-28T05:10:07;97386.88;;;2.26;93.78
6514;BME280;3290;47.716;9.070;2023-01-28T05:12:32;97389.22;;;2.11;94.60
6514;BME280;3290;47.716;9.070;2023-01-28T05:14:58;97382.63;;;2.17;93.61
6514;BME280;3290;47.716;9.070;2023-01-28T05:17:27;97398.41;;;2.31;93.04
6514;BME280;3290;47.716;9.070;2023-01-28T05:19:53;97398.75;;;2.36;93.11
6514;BME280;3290;47.716;9.070;2023-01-28T05:22:18;97399.56;;;2.37;93.35
6514;BME280;3290;47.716;9.070;2023-01-28T05:24:43;97405.34;;;2.31;93.74
6514;BME280;3290;47.716;9.070;2023-01-28T05:27:09;97407.78;;;2.07;94.58
6514;BME280;3290;47.716;9.070;2023-01-28T05:29:34;97414.84;;;2.22;94.67
6514;BME280;3290;47.716;9.070;2023-01-28T05:32:00;97421.06;;;2.37;93.78
6514;BME280;3290;47.716;9.070;2023-01-28T05:34:25;97416.94;;;2.27;93.99
6514;BME280;3290;47.716;9.070;2023-01-28T05:36:50;97414.53;;;2.08;94.87
6514;BME280;3290;47.716;9.070;2023-01-28T05:39:16;97421.63;;;2.06;94.67
6514;BME280;3290;47.716;9.070;2023-01-28T05:41:41;97408.28;;;2.36;93.77
6514;BME280;3290;47.716;9.070;2023-01-28T05:44:06;97424.81;;;2.17;94.72
6514;BME280;3290;47.716;9.070;2023-01-28T05:46:32;97420.03;;;2.30;94.15
6514;BME280;3290;47.716;9.070;2023-01-28T05:48:57;97425.09;;;2.39;94.59
6514;BME280;3290;47.716;9.070;2023-01-28T05:51:22;97413.91;;;2.31;94.11
6514;BME280;3290;47.716;9.070;2023-01-28T05:53:48;97416.66;;;2.30;94.29
6514;BME280;3290;47.716;9.070;2023-01-28T05:56:13;97420.63;;;2.41;93.79
6514;BME280;3290;47.716;9.070;2023-01-28T05:58:38;97415.16;;;2.27;94.43
6514;BME280;3290;47.716;9.070;2023-01-28T06:01:04;97422.50;;;2.39;94.12
6514;BME280;3290;47.716;9.070;2023-01-28T06:03:29;97418.72;;;2.26;93.95
6514;BME280;3290;47.716;9.070;2023-01-28T06:05:55;97431.06;;;2.15;94.59
6514;BME280;3290;47.716;9.070;2023-01-28T06:08:20;97433.31;;;2.60;93.10
6514;BME280;3290;47.716;9.070;2023-01-28T06:10:45;97426.72;;;2.66;92.80
6514;BME280;3290;47.716;9.070;2023-01-28T06:13:11;97433.63;;;2.57;93.03
6514;BME280;3290;47.716;9.070;2023-01-28T06:15:36;97435.75;;;2.62;92.93
6514;BME280;3290;47.716;9.070;2023-01-28T06:18:02;97437.97;;;2.57;92.43
6514;BME280;3290;47.716;9.070;2023-01-28T06:20:27;97439.03;;;2.46;92.74
6514;BME280;3290;47.716;9.070;2023-01-28T06:22:53;97442.47;;;2.47;92.70
6514;BME280;3290;47.716;9.070;2023-01-28T06:25:18;97442.13;;;2.50;92.55
6514;BME280;3290;47.716;9.070;2023-01-28T06:27:44;97440.78;;;2.38;92.46
6514;BME280;3290;47.716;9.070;2023-01-28T06:30:10;97442.19;;;2.58;91.78
6514;BME280;3290;47.716;9.070;2023-01-28T06:32:35;97441.44;;;2.40;92.33
6514;BME280;3290;47.716;9.070;2023-01-28T06:35:01;97441.53;;;2.56;92.32
6514;BME280;3290;47.716;9.070;2023-01-28T06:37:26;97444.50;;;2.61;91.74
6514;BME280;3290;47.716;9.070;2023-01-28T06:39:51;97446.72;;;2.56;91.41
6514;BME280;3290;47.716;9.070;2023-01-28T06:42:17;97449.84;;;2.42;92.53
6514;BME280;3290;47.716;9.070;2023-01-28T06:44:42;97451.88;;;2.56;92.11
6514;BME280;3290;47.716;9.070;2023-01-28T06:47:08;97453.28;;;2.76;91.02
6514;BME280;3290;47.716;9.070;2023-01-28T06:49:36;97457.41;;;2.61;92.39
6514;BME280;3290;47.716;9.070;2023-01-28T06:52:01;97458.06;;;2.63;91.84
6514;BME280;3290;47.716;9.070;2023-01-28T06:54:27;97459.69;;;2.64;90.93
6514;BME280;3290;47.716;9.070;2023-01-28T06:56:52;97461.06;;;2.83;90.65
6514;BME280;3290;47.716;9.070;2023-01-28T06:59:17;97460.59;;;2.55;91.66
6514;BME280;3290;47.716;9.070;2023-01-28T07:01:43;97465.09;;;2.53;91.45
6514;BME280;3290;47.716;9.070;2023-01-28T07:04:08;97469.00;;;2.82;90.21
6514;BME280;3290;47.716;9.070;2023-01-28T07:06:33;97463.13;;;2.72;90.17
6514;BME280;3290;47.716;9.070;2023-01-28T07:08:59;97472.66;;;2.72;90.16
6514;BME280;3290;47.716;9.070;2023-01-28T07:11:24;97469.84;;;2.90;89.87
6514;BME280;3290;47.716;9.070;2023-01-28T07:13:49;97480.91;;;2.50;91.62
6514;BME280;3290;47.716;9.070;2023-01-28T07:16:15;97479.19;;;2.83;90.70
6514;BME280;3290;47.716;9.070;2023-01-28T07:18:41;97484.06;;;2.86;90.09
6514;BME280;3290;47.716;9.070;2023-01-28T07:21:06;97484.31;;;2.76;90.80
6514;BME280;3290;47.716;9.070;2023-01-28T07:23:32;97478.03;;;2.53;90.54
6514;BME280;3290;47.716;9.070;2023-01-28T07:26:01;97485.88;;;2.61;89.43
6514;BME280;3290;47.716;9.070;2023-01-28T07:28:27;97492.50;;;2.63;88.21
6514;BME280;3290;47.716;9.070;2023-01-28T07:30:52;97484.59;;;2.65;88.28
6514;BME280;3290;47.716;9.070;2023-01-28T07:33:18;97492.16;;;2.41;88.46
6514;BME280;3290;47.716;9.070;2023-01-28T07:35:44;97493.66;;;2.69;87.11
6514;BME280;3290;47.716;9.070;2023-01-28T07:38:09;97492.38;;;2.73;86.92
6514;BME280;3290;47.716;9.070;2023-01-28T07:40:35;97499.84;;;2.76;86.26
6514;BME280;3290;47.716;9.070;2023-01-28T07:43:00;97502.56;;;2.49;86.40
6514;BME280;3290;47.716;9.070;2023-01-28T07:45:26;97501.38;;;2.61;86.15
6514;BME280;3290;47.716;9.070;2023-01-28T07:48:02;97500.25;;;2.63;85.97
6514;BME280;3290;47.716;9.070;2023-01-28T07:50:30;97497.19;;;2.93;88.32
6514;BME280;3290;47.716;9.070;2023-01-28T07:52:56;97496.78;;;3.05;84.58
6514;BME280;3290;47.716;9.070;2023-01-28T07:55:22;97499.56;;;3.12;84.23
6514;BME280;3290;47.716;9.070;2023-01-28T07:57:52;97505.72;;;2.85;85.30
6514;BME280;3290;47.716;9.070;2023-01-28T08:00:19;97512.19;;;2.64;86.54
6514;BME280;3290;47.716;9.070;2023-01-28T08:02:45;97513.47;;;2.60;87.40
6514;BME280;3290;47.716;9.070;2023-01-28T08:05:16;97512.22;;;2.89;85.75
6514;BME280;3290;47.716;9.070;2023-01-28T08:07:41;97512.09;;;2.99;85.09
6514;BME280;3290;47.716;9.070;2023-01-28T08:10:08;97515.53;;;2.99;86.14
6514;BME280;3290;47.716;9.070;2023-01-28T08:12:34;97526.31;;;2.70;85.07
6514;BME280;3290;47.716;9.070;2023-01-28T08:14:59;97531.25;;;2.80;85.06
6514;BME280;3290;47.716;9.070;2023-01-28T08:17:24;97530.69;;;2.94;84.11
6514;BME280;3290;47.716;9.070;2023-01-28T08:19:50;97521.94;;;3.20;83.11
6514;BME280;3290;47.716;9.070;2023-01-28T08:22:15;97522.31;;;3.82;80.68
6514;BME280;3290;47.716;9.070;2023-01-28T08:24:40;97527.19;;;3.93;79.06
6514;BME280;3290;47.716;9.070;2023-01-28T08:27:06;97523.00;;;4.00;78.14
6514;BME280;3290;47.716;9.070;2023-01-28T08:29:31;97520.78;;;5.38;76.55
6514;BME280;3290;47.716;9.070;2023-01-28T08:31:57;97528.50;;;5.00;73.59
6514;BME280;3290;47.716;9.070;2023-01-28T08:34:22;97534.88;;;4.42;75.14
6514;BME280;3290;47.716;9.070;2023-01-28T08:36:48;97535.66;;;4.11;76.22
6514;BME280;3290;47.716;9.070;2023-01-28T08:41:44;97542.09;;;3.42;77.30
6514;BME280;3290;47.716;9.070;2023-01-28T08:44:10;97537.13;;;3.57;77.55
6514;BME280;3290;47.716;9.070;2023-01-28T08:46:35;97543.66;;;3.68;76.76
6514;BME280;3290;47.716;9.070;2023-01-28T08:49:00;97546.56;;;3.32;77.67
6514;BME280;3290;47.716;9.070;2023-01-28T08:51:26;97540.06;;;3.61;77.00
6514;BME280;3290;47.716;9.070;2023-01-28T08:53:54;97541.16;;;3.92;75.62
6514;BME280;3290;47.716;9.070;2023-01-28T08:56:19;97545.53;;;3.51;76.57
6514;BME280;3290;47.716;9.070;2023-01-28T08:58:44;97542.09;;;3.42;76.77
6514;BME280;3290;47.716;9.070;2023-01-28T09:01:10;97548.56;;;3.46;77.00
6514;BME280;3290;47.716;9.070;2023-01-28T09:03:35;97544.59;;;3.67;76.58
6514;BME280;3290;47.716;9.070;2023-01-28T09:06:02;97544.16;;;3.72;75.29
6514;BME280;3290;47.716;9.070;2023-01-28T09:08:28;97545.28;;;3.69;75.59
6514;BME280;3290;47.716;9.070;2023-01-28T09:10:55;97552.94;;;3.38;75.66
6514;BME280;3290;47.716;9.070;2023-01-28T09:13:20;97555.19;;;3.41;75.45
6514;BME280;3290;47.716;9.070;2023-01-28T09:15:46;97558.50;;;3.58;75.05
6514;BME280;3290;47.716;9.070;2023-01-28T09:18:11;97556.84;;;3.91;74.04
6514;BME280;3290;47.716;9.070;2023-01-28T09:20:37;97557.47;;;3.85;73.60
6514;BME280;3290;47.716;9.070;2023-01-28T09:23:02;97559.84;;;3.62;73.90
6514;BME280;3290;47.716;9.070;2023-01-28T09:25:28;97549.78;;;3.67;73.29
6514;BME280;3290;47.716;9.070;2023-01-28T09:27:54;97556.75;;;4.47;71.95
6514;BME280;3290;47.716;9.070;2023-01-28T09:30:20;97541.25;;;5.79;66.88
6514;BME280;3290;47.716;9.070;2023-01-28T09:32:49;97547.16;;;6.03;62.78
6514;BME280;3290;47.716;9.070;2023-01-28T09:35:14;97553.25;;;6.84;62.27
6514;BME280;3290;47.716;9.070;2023-01-28T09:37:40;97549.34;;;7.17;58.85
6514;BME280;3290;47.716;9.070;2023-01-28T09:40:06;97561.81;;;7.07;57.18
6514;BME280;3290;47.716;9.070;2023-01-28T09:45:35;97560.19;;;4.79;63.34
6514;BME280;3290;47.716;9.070;2023-01-28T09:48:04;97563.91;;;4.38;66.09
6514;BME280;3290;47.716;9.070;2023-01-28T09:50:38;97566.50;;;4.38;66.95
6514;BME280;3290;47.716;9.070;2023-01-28T09:55:56;97573.09;;;4.16;67.56
6514;BME280;3290;47.716;9.070;2023-01-28T09:58:21;97572.78;;;4.11;68.24
6514;BME280;3290;47.716;9.070;2023-01-28T10:00:52;97578.91;;;4.02;69.51
6514;BME280;3290;47.716;9.070;2023-01-28T10:14:02;97563.41;;;4.34;69.21
6514;BME280;3290;47.716;9.070;2023-01-28T10:19:14;97559.66;;;4.21;68.60
6514;BME280;3290;47.716;9.070;2023-01-28T10:21:52;97560.66;;;4.43;69.02
6514;BME280;3290;47.716;9.070;2023-01-28T10:24:37;97554.03;;;4.41;68.36
6514;BME280;3290;47.716;9.070;2023-01-28T10:27:15;97556.59;;;4.65;67.34
6514;BME280;3290;47.716;9.070;2023-01-28T10:29:41;97563.25;;;4.67;67.62
6514;BME280;3290;47.716;9.070;2023-01-28T10:32:29;97559.66;;;4.21;69.35
6514;BME280;3290;47.716;9.070;2023-01-28T10:34:55;97562.59;;;4.26;69.59
6514;BME280;3290;47.716;9.070;2023-01-28T10:37:24;97554.25;;;3.91;70.61
6514;BME280;3290;47.716;9.070;2023-01-28T10:39:52;97556.72;;;4.08;70.66
6514;BME280;3290;47.716;9.070;2023-01-28T10:42:31;97563.06;;;4.21;71.23
6514;BME280;3290;47.716;9.070;2023-01-28T10:45:31;97559.34;;;4.24;70.96
6514;BME280;3290;47.716;9.070;2023-01-28T10:48:06;97556.34;;;3.87;73.25
6514;BME280;3290;47.716;9.070;2023-01-28T10:50:33;97564.97;;;3.96;73.37
6514;BME280;3290;47.716;9.070;2023-01-28T10:53:04;97550.13;;;3.64;74.43
6514;BME280;3290;47.716;9.070;2023-01-28T10:55:35;97559.34;;;3.59;75.14
6514;BME280;3290;47.716;9.070;2023-01-28T10:58:17;97554.44;;;3.56;76.02
6514;BME280;3290;47.716;9.070;2023-01-28T11:00:45;97563.34;;;3.54;76.05
6514;BME280;3290;47.716;9.070;2023-01-28T11:03:20;97565.94;;;3.54;76.78
6514;BME280;3290;47.716;9.070;2023-01-28T11:05:51;97558.41;;;3.76;75.88
6514;BME280;3290;47.716;9.070;2023-01-28T11:08:18;97566.81;;;3.70;76.23
6514;BME280;3290;47.716;9.070;2023-01-28T11:10:44;97563.03;;;4.05;75.19
6514;BME280;3290;47.716;9.070;2023-01-28T11:13:24;97564.28;;;3.86;75.13
6514;BME280;3290;47.716;9.070;2023-01-28T11:15:59;97573.00;;;3.77;76.36
6514;BME280;3290;47.716;9.070;2023-01-28T11:18:27;97569.84;;;3.65;76.53
6514;BME280;3290;47.716;9.070;2023-01-28T11:21:00;97567.72;;;3.94;75.34
6514;BME280;3290;47.716;9.070;2023-01-28T11:23:29;97561.06;;;4.07;76.36
6514;BME280;3290;47.716;9.070;2023-01-28T11:28:30;97565.19;;;3.69;78.52
6514;BME280;3290;47.716;9.070;2023-01-28T11:30:57;97562.19;;;3.89;77.68
6514;BME280;3290;47.716;9.070;2023-01-28T11:35:57;97560.09;;;3.93;77.58
6514;BME280;3290;47.716;9.070;2023-01-28T11:38:27;97552.41;;;3.75;78.69
6514;BME280;3290;47.716;9.070;2023-01-28T11:40:55;97561.56;;;3.54;80.00
6514;BME280;3290;47.716;9.070;2023-01-28T11:43:26;97551.56;;;3.67;79.94
6514;BME280;3290;47.716;9.070;2023-01-28T11:51:41;97558.19;;;3.61;80.35
6514;BME280;3290;47.716;9.070;2023-01-28T11:54:20;97559.47;;;3.58;80.71
6514;BME280;3290;47.716;9.070;2023-01-28T11:59:50;97548.84;;;3.68;80.24
6514;BME280;3290;47.716;9.070;2023-01-28T12:12:53;97546.72;;;3.64;80.35
6514;BME280;3290;47.716;9.070;2023-01-28T12:26:51;97544.66;;;3.75;79.55
6514;BME280;3290;47.716;9.070;2023-01-28T12:29:33;97552.22;;;3.61;80.60
6514;BME280;3290;47.716;9.070;2023-01-28T12:42:41;97549.72;;;3.52;78.98
6514;BME280;3290;47.716;9.070;2023-01-28T12:48:31;97549.78;;;3.67;77.91
6514;BME280;3290;47.716;9.070;2023-01-28T12:51:03;97551.22;;;4.03;77.33
6514;BME280;3290;47.716;9.070;2023-01-28T12:56:32;97545.91;;;4.36;75.06
6514;BME280;3290;47.716;9.070;2023-01-28T12:59:13;97545.59;;;4.47;75.52
6514;BME280;3290;47.716;9.070;2023-01-28T13:02:03;97537.13;;;4.21;75.65
6514;BME280;3290;47.716;9.070;2023-01-28T13:04:46;97540.56;;;4.22;74.18
6514;BME280;3290;47.716;9.070;2023-01-28T13:10:10;97544.41;;;4.18;73.68
6514;BME280;3290;47.716;9.070;2023-01-28T13:12:39;97541.84;;;4.34;73.03
6514;BME280;3290;47.716;9.070;2023-01-28T13:15:09;97541.22;;;4.39;72.89
6514;BME280;3290;47.716;9.070;2023-01-28T13:17:35;97542.16;;;4.38;73.09
6514;BME280;3290;47.716;9.070;2023-01-28T13:20:13;97549.13;;;4.22;72.80
6514;BME280;3290;47.716;9.070;2023-01-28T13:22:38;97553.19;;;4.40;73.34
6514;BME280;3290;47.716;9.070;2023-01-28T13:25:24;97553.53;;;4.77;71.75
6514;BME280;3290;47.716;9.070;2023-01-28T13:27:57;97560.97;;;4.72;72.67
6514;BME280;3290;47.716;9.070;2023-01-28T13:30:26;97555.94;;;4.55;72.87
6514;BME280;3290;47.716;9.070;2023-01-28T13:33:06;97555.31;;;4.53;73.33
6514;BME280;3290;47.716;9.070;2023-01-28T13:35:52;97552.56;;;4.46;74.36
6514;BME280;3290;47.716;9.070;2023-01-28T13:38:20;97566.28;;;4.15;74.64
6514;BME280;3290;47.716;9.070;2023-01-28T13:40:57;97563.53;;;4.25;73.69
6514;BME280;3290;47.716;9.070;2023-01-28T13:45:58;97568.41;;;4.12;74.18
6514;BME280;3290;47.716;9.070;2023-01-28T13:51:19;97570.69;;;4.15;73.91
6514;BME280;3290;47.716;9.070;2023-01-28T13:53:52;97571.56;;;3.90;74.51
6514;BME280;3290;47.716;9.070;2023-01-28T13:56:22;97578.31;;;3.75;74.23
6514;BME280;3290;47.716;9.070;2023-01-28T14:07:08;97585.72;;;3.62;75.02
6514;BME280;3290;47.716;9.070;2023-01-28T14:09:58;97587.78;;;4.00;73.54
6514;BME280;3290;47.716;9.070;2023-01-28T14:18:42;97595.00;;;4.22;74.20
6514;BME280;3290;47.716;9.070;2023-01-28T14:21:12;97595.97;;;4.29;73.68
6514;BME280;3290;47.716;9.070;2023-01-28T14:23:44;97592.13;;;3.92;74.35
6514;BME280;3290;47.716;9.070;2023-01-28T14:31:36;97597.81;;;3.95;74.58
6514;BME280;3290;47.716;9.070;2023-01-28T14:34:26;97613.03;;;3.90;74.43
6514;BME280;3290;47.716;9.070;2023-01-28T14:37:07;97614.31;;;3.86;75.29
6514;BME280;3290;47.716;9.070;2023-01-28T14:42:57;97604.31;;;3.58;76.27
6514;BME280;3290;47.716;9.070;2023-01-28T14:45:04;97615.88;;;3.71;76.62
6514;BME280;3290;47.716;9.070;2023-01-28T14:55:39;97623.88;;;3.94;74.68
6514;BME280;3290;47.716;9.070;2023-01-28T14:58:19;97626.38;;;4.03;74.73
6514;BME280;3290;47.716;9.070;2023-01-28T15:00:58;97627.56;;;3.75;74.45
6514;BME280;3290;47.716;9.070;2023-01-28T15:03:25;97635.09;;;3.94;74.33
6514;BME280;3290;47.716;9.070;2023-01-28T15:06:12;97638.03;;;4.07;74.52
6514;BME280;3290;47.716;9.070;2023-01-28T15:08:38;97641.56;;;3.98;74.67
6514;BME280;3290;47.716;9.070;2023-01-28T15:11:05;97637.34;;;3.89;75.13
6514;BME280;3290;47.716;9.070;2023-01-28T15:13:38;97639.41;;;3.86;75.06
6514;BME280;3290;47.716;9.070;2023-01-28T15:16:05;97637.75;;;4.10;74.56
6514;BME280;3290;47.716;9.070;2023-01-28T15:18:33;97639.22;;;3.79;74.73
6514;BME280;3290;47.716;9.070;2023-01-28T15:21:00;97641.16;;;3.77;74.10
6514;BME280;3290;47.716;9.070;2023-01-28T15:23:30;97642.47;;;3.81;74.09
6514;BME280;3290;47.716;9.070;2023-01-28T15:25:57;97644.44;;;3.87;74.58
6514;BME280;3290;47.716;9.070;2023-01-28T15:28:31;97648.16;;;3.85;74.45
6514;BME280;3290;47.716;9.070;2023-01-28T15:30:57;97650.06;;;3.75;74.93
6514;BME280;3290;47.716;9.070;2023-01-28T15:33:23;97659.22;;;3.95;74.19
6514;BME280;3290;47.716;9.070;2023-01-28T15:35:51;97648.75;;;4.12;73.70
6514;BME280;3290;47.716;9.070;2023-01-28T15:38:17;97659.22;;;3.95;74.02
6514;BME280;3290;47.716;9.070;2023-01-28T15:40:48;97652.28;;;4.03;73.75
6514;BME280;3290;47.716;9.070;2023-01-28T15:43:17;97659.50;;;3.84;73.93
6514;BME280;3290;47.716;9.070;2023-01-28T15:45:45;97662.94;;;3.92;73.28
6514;BME280;3290;47.716;9.070;2023-01-28T15:48:13;97663.91;;;3.91;73.14
6514;BME280;3290;47.716;9.070;2023-01-28T15:50:40;97660.44;;;3.83;72.99
6514;BME280;3290;47.716;9.070;2023-01-28T15:53:09;97673.34;;;4.00;72.49
6514;BME280;3290;47.716;9.070;2023-01-28T15:55:38;97678.13;;;3.87;72.75
6514;BME280;3290;47.716;9.070;2023-01-28T16:00:49;97679.75;;;3.88;72.32
6514;BME280;3290;47.716;9.070;2023-01-28T16:03:26;97687.91;;;3.68;72.93
6514;BME280;3290;47.716;9.070;2023-01-28T16:06:15;97701.66;;;3.60;72.91